createdAt,value
2023-01-31T00:00:50.324Z,9.38
2023-01-31T00:03:19.386Z,8.10
2023-01-31T00:05:49.800Z,8.68
2023-01-31T00:08:18.955Z,9.15
2023-01-31T00:10:47.611Z,9.68
2023-01-31T00:13:16.599Z,10.10
2023-01-31T00:15:45.745Z,9.57
2023-01-31T00:18:14.762Z,8.93
2023-01-31T00:20:43.796Z,8.48
2023-01-31T00:23:14.225Z,8.43
2023-01-31T00:25:42.863Z,7.53
2023-01-31T00:28:12.850Z,9.50
2023-01-31T00:30:41.870Z,9.23
2023-01-31T00:33:10.826Z,9.65
2023-01-31T00:35:41.935Z,8.52
2023-01-31T00:38:10.870Z,8.23
2023-01-31T00:40:40.930Z,9.63
2023-01-31T00:43:09.944Z,9.40
2023-01-31T00:45:38.908Z,7.75
2023-01-31T00:48:07.857Z,9.20
2023-01-31T00:50:36.812Z,8.13
2023-01-31T00:53:05.911Z,8.45
2023-01-31T00:55:35.177Z,7.45
2023-01-31T00:58:06.132Z,8.48
2023-01-31T01:00:35.735Z,9.35
2023-01-31T01:03:05.101Z,8.27
2023-01-31T01:05:34.745Z,8.20
2023-01-31T01:08:03.978Z,8.05
2023-01-31T01:10:32.700Z,8.32
2023-01-31T01:13:02.809Z,7.90
2023-01-31T01:15:33.267Z,6.85
2023-01-31T01:18:02.529Z,8.30
2023-01-31T01:20:31.535Z,8.75
2023-01-31T01:23:00.921Z,7.40
2023-01-31T01:25:29.819Z,8.68
2023-01-31T01:28:02.332Z,7.10
2023-01-31T01:30:33.523Z,8.00
2023-01-31T01:33:02.766Z,6.97
2023-01-31T01:35:33.044Z,7.45
2023-01-31T01:38:02.129Z,8.20
2023-01-31T01:40:36.782Z,8.57
2023-01-31T01:43:06.057Z,7.90
2023-01-31T01:45:37.938Z,7.60
2023-01-31T01:48:08.954Z,8.13
2023-01-31T01:50:40.272Z,8.23
2023-01-31T01:53:13.814Z,8.13
2023-01-31T01:55:44.433Z,8.10
2023-01-31T01:58:17.827Z,7.32
2023-01-31T02:00:48.928Z,8.25
2023-01-31T02:03:19.947Z,7.10
2023-01-31T02:05:50.669Z,8.93
2023-01-31T02:08:23.185Z,7.72
2023-01-31T02:10:56.005Z,7.45
2023-01-31T02:13:26.115Z,7.80
2023-01-31T02:15:56.736Z,6.43
2023-01-31T02:18:26.869Z,6.70
2023-01-31T02:21:26.366Z,7.60
2023-01-31T02:24:28.663Z,7.05
2023-01-31T02:27:11.961Z,5.57
2023-01-31T02:30:14.370Z,7.43
2023-01-31T02:32:56.837Z,6.55
2023-01-31T02:35:33.807Z,6.75
2023-01-31T02:38:11.649Z,6.43
2023-01-31T02:40:45.230Z,6.70
2023-01-31T02:43:21.544Z,6.45
2023-01-31T02:45:53.721Z,7.35
2023-01-31T02:48:30.631Z,7.40
2023-01-31T02:51:02.997Z,5.63
2023-01-31T02:53:34.595Z,5.63
2023-01-31T02:56:18.229Z,6.80
2023-01-31T02:58:52.039Z,6.75
2023-01-31T03:01:28.094Z,6.10
2023-01-31T03:04:00.775Z,7.07
2023-01-31T03:07:01.911Z,5.82
2023-01-31T03:09:39.375Z,5.50
2023-01-31T03:12:34.565Z,7.05
2023-01-31T03:15:11.999Z,5.25
2023-01-31T03:17:52.002Z,6.78
2023-01-31T03:20:26.674Z,6.40
2023-01-31T03:22:58.615Z,5.55
2023-01-31T03:25:30.423Z,5.85
2023-01-31T03:28:06.497Z,5.70
2023-01-31T03:30:41.074Z,6.50
2023-01-31T03:33:12.709Z,5.90
2023-01-31T03:35:44.934Z,6.90
2023-01-31T03:38:18.852Z,5.25
2023-01-31T03:40:51.039Z,4.95
2023-01-31T03:43:23.601Z,6.32
2023-01-31T03:46:00.309Z,5.63
2023-01-31T03:48:32.915Z,6.25
2023-01-31T03:51:07.935Z,5.40
2023-01-31T03:53:41.165Z,5.43
2023-01-31T03:56:16.186Z,6.22
2023-01-31T03:58:49.545Z,5.78
2023-01-31T04:01:19.305Z,6.70
2023-01-31T04:03:51.693Z,5.25
2023-01-31T04:06:23.356Z,6.90
2023-01-31T04:08:52.838Z,4.88
2023-01-31T04:11:23.520Z,5.32
2023-01-31T04:13:52.329Z,7.85
2023-01-31T04:16:21.429Z,5.25
2023-01-31T04:18:51.811Z,5.53
2023-01-31T04:21:22.436Z,5.72
2023-01-31T04:23:51.501Z,4.90
2023-01-31T04:26:20.565Z,6.72
2023-01-31T04:28:49.255Z,6.28
2023-01-31T04:31:18.351Z,6.05
2023-01-31T04:33:47.614Z,4.18
2023-01-31T04:36:16.660Z,5.53
2023-01-31T04:38:47.349Z,5.20
2023-01-31T04:41:16.373Z,4.40
2023-01-31T04:43:45.017Z,4.97
2023-01-31T04:46:14.202Z,5.30
2023-01-31T04:48:43.251Z,6.40
2023-01-31T04:51:12.452Z,6.78
2023-01-31T04:53:41.528Z,5.50
2023-01-31T04:56:14.360Z,6.28
2023-01-31T04:58:43.627Z,5.93
2023-01-31T05:01:12.767Z,5.15
2023-01-31T05:03:41.886Z,5.75
2023-01-31T05:06:11.390Z,4.93
2023-01-31T05:08:40.407Z,7.28
2023-01-31T05:11:09.727Z,5.50
2023-01-31T05:13:39.956Z,5.10
2023-01-31T05:16:09.749Z,4.55
2023-01-31T05:18:40.402Z,4.28
2023-01-31T05:21:10.179Z,4.90
2023-01-31T05:23:39.635Z,3.80
2023-01-31T05:26:08.655Z,5.20
2023-01-31T05:28:37.288Z,5.60
2023-01-31T05:31:09.365Z,4.57
2023-01-31T05:33:38.773Z,4.95
2023-01-31T05:36:08.480Z,3.70
2023-01-31T05:38:37.694Z,4.07
2023-01-31T05:41:06.958Z,4.18
2023-01-31T05:43:36.738Z,5.13
2023-01-31T05:46:07.796Z,4.72
2023-01-31T05:48:37.122Z,4.85
2023-01-31T05:51:06.639Z,8.65
2023-01-31T05:53:35.755Z,5.25
2023-01-31T05:56:04.959Z,4.20
2023-01-31T05:58:33.701Z,4.45
2023-01-31T06:01:02.886Z,5.05
2023-01-31T06:03:33.429Z,5.03
2023-01-31T06:06:04.119Z,4.60
2023-01-31T06:08:33.402Z,5.55
2023-01-31T06:11:04.926Z,5.22
2023-01-31T06:13:33.653Z,5.78
2023-01-31T06:16:02.899Z,4.90
2023-01-31T06:18:33.611Z,5.50
2023-01-31T06:21:02.922Z,5.55
2023-01-31T06:23:32.023Z,5.75
2023-01-31T06:26:01.425Z,5.00
2023-01-31T06:28:30.660Z,5.30
2023-01-31T06:30:59.937Z,5.30
2023-01-31T06:33:43.972Z,4.45
2023-01-31T06:36:19.456Z,5.68
2023-01-31T06:38:51.425Z,6.13
2023-01-31T06:41:20.917Z,4.45
2023-01-31T06:43:51.394Z,4.18
2023-01-31T06:46:20.664Z,6.18
2023-01-31T06:48:49.961Z,5.85
2023-01-31T06:51:20.452Z,5.35
2023-01-31T06:53:51.354Z,5.30
2023-01-31T06:56:20.599Z,5.63
2023-01-31T06:58:49.271Z,6.72
2023-01-31T07:01:18.384Z,5.10
2023-01-31T07:03:47.453Z,5.78
2023-01-31T07:06:18.452Z,5.80
2023-01-31T07:08:49.080Z,4.90
2023-01-31T07:11:18.246Z,4.45
2023-01-31T07:13:48.014Z,5.13
2023-01-31T07:18:46.684Z,5.78
2023-01-31T07:21:15.792Z,5.88
2023-01-31T07:23:45.674Z,4.88
2023-01-31T07:26:16.434Z,4.70
2023-01-31T07:28:45.393Z,5.70
2023-01-31T07:31:15.577Z,6.03
2023-01-31T07:36:15.371Z,6.13
2023-01-31T07:38:44.477Z,5.03
2023-01-31T07:41:13.499Z,4.43
2023-01-31T07:43:43.649Z,5.93
2023-01-31T07:46:12.914Z,6.15
2023-01-31T07:48:41.970Z,4.65
2023-01-31T07:51:10.973Z,5.55
2023-01-31T07:53:42.292Z,4.57
2023-01-31T07:56:13.108Z,5.47
2023-01-31T07:58:44.339Z,5.88
2023-01-31T08:01:34.118Z,5.78
2023-01-31T08:04:19.445Z,5.55
2023-01-31T08:06:51.086Z,4.72
2023-01-31T08:11:49.029Z,4.95
2023-01-31T08:14:23.771Z,5.00
2023-01-31T08:16:52.802Z,4.50
2023-01-31T08:19:22.029Z,5.75
2023-01-31T08:21:51.073Z,4.85
2023-01-31T08:24:20.399Z,7.57
2023-01-31T08:26:49.515Z,4.93
2023-01-31T08:29:20.276Z,5.88
2023-01-31T08:31:51.154Z,4.45
2023-01-31T08:34:23.486Z,6.00
2023-01-31T08:36:52.570Z,4.63
2023-01-31T08:39:21.970Z,5.78
2023-01-31T08:41:52.016Z,4.18
2023-01-31T08:44:22.490Z,4.40
2023-01-31T08:46:51.280Z,5.05
2023-01-31T08:49:20.306Z,5.30
2023-01-31T08:51:49.397Z,4.95
2023-01-31T08:54:18.499Z,4.75
2023-01-31T08:56:47.546Z,5.38
2023-01-31T08:59:16.756Z,4.82
2023-01-31T09:01:47.648Z,5.78
2023-01-31T09:04:16.628Z,4.07
2023-01-31T09:06:45.671Z,5.53
2023-01-31T09:09:15.042Z,5.30
2023-01-31T09:11:44.075Z,5.20
2023-01-31T09:14:13.088Z,4.28
2023-01-31T09:16:43.581Z,5.40
2023-01-31T09:19:14.167Z,4.78
2023-01-31T09:21:43.294Z,4.80
2023-01-31T09:24:12.517Z,3.97
2023-01-31T09:26:41.694Z,4.78
2023-01-31T09:29:10.793Z,5.38
2023-01-31T09:31:39.569Z,4.80
2023-01-31T09:34:09.050Z,4.68
2023-01-31T09:36:39.556Z,5.20
2023-01-31T09:39:08.623Z,4.55
2023-01-31T09:41:39.712Z,5.05
2023-01-31T09:44:12.856Z,4.93
2023-01-31T09:46:43.582Z,5.28
2023-01-31T09:49:19.984Z,5.30
2023-01-31T09:51:53.625Z,4.60
2023-01-31T09:54:27.322Z,4.28
2023-01-31T09:57:02.326Z,5.82
2023-01-31T09:59:38.331Z,4.20
2023-01-31T10:02:18.630Z,4.95
2023-01-31T10:04:59.653Z,6.25
2023-01-31T10:07:31.856Z,5.65
2023-01-31T10:10:05.421Z,4.75
2023-01-31T10:12:37.411Z,3.90
2023-01-31T10:15:08.334Z,4.72
2023-01-31T10:17:41.163Z,3.75
2023-01-31T10:20:18.149Z,5.40
2023-01-31T10:22:52.450Z,5.07
2023-01-31T10:25:26.803Z,4.05
2023-01-31T10:27:59.393Z,3.55
2023-01-31T10:30:40.058Z,3.97
2023-01-31T10:33:20.237Z,4.10
2023-01-31T10:35:51.881Z,4.60
2023-01-31T10:38:26.943Z,4.57
2023-01-31T10:41:00.794Z,4.45
2023-01-31T10:43:36.091Z,4.10
2023-01-31T10:46:11.634Z,4.40
2023-01-31T10:48:41.511Z,4.85
2023-01-31T10:51:20.779Z,4.03
2023-01-31T10:54:13.263Z,5.25
2023-01-31T10:56:44.678Z,4.82
2023-01-31T10:59:24.173Z,4.45
2023-01-31T11:01:53.320Z,3.58
2023-01-31T11:04:30.375Z,3.90
2023-01-31T11:07:00.041Z,3.85
2023-01-31T11:09:33.785Z,4.07
2023-01-31T11:12:04.039Z,4.07
2023-01-31T11:17:04.305Z,5.15
2023-01-31T11:19:36.786Z,4.20
2023-01-31T11:22:06.508Z,4.28
2023-01-31T11:24:39.352Z,4.10
2023-01-31T11:27:11.476Z,3.85
2023-01-31T11:29:43.487Z,4.03
2023-01-31T11:32:19.414Z,4.15
2023-01-31T11:34:57.960Z,4.15
2023-01-31T11:37:27.798Z,4.32
2023-01-31T11:40:01.500Z,3.30
2023-01-31T11:42:30.666Z,4.25
2023-01-31T11:45:01.693Z,3.53
2023-01-31T11:47:41.539Z,4.60
2023-01-31T11:50:21.093Z,3.35
2023-01-31T11:52:55.994Z,4.65
2023-01-31T11:55:26.975Z,5.13
2023-01-31T11:57:58.381Z,6.07
2023-01-31T12:00:29.614Z,5.00
2023-01-31T12:03:04.105Z,5.38
2023-01-31T12:05:39.227Z,4.85
2023-01-31T12:08:10.899Z,5.22
2023-01-31T12:10:44.495Z,4.50
2023-01-31T12:13:19.284Z,4.90
2023-01-31T12:15:55.698Z,4.72
2023-01-31T12:18:38.642Z,6.38
2023-01-31T12:21:14.502Z,5.07
2023-01-31T12:23:51.740Z,5.60
2023-01-31T12:26:27.799Z,4.55
2023-01-31T12:29:07.274Z,5.43
2023-01-31T12:31:47.795Z,4.95
2023-01-31T12:34:26.726Z,5.07
2023-01-31T12:37:07.997Z,5.00
2023-01-31T12:39:50.735Z,5.63
2023-01-31T12:42:34.315Z,5.75
2023-01-31T12:45:11.360Z,4.40
2023-01-31T12:48:09.346Z,4.30
2023-01-31T12:50:42.832Z,3.33
2023-01-31T12:53:32.306Z,4.72
2023-01-31T12:56:19.327Z,4.47
2023-01-31T12:59:06.306Z,4.18
2023-01-31T13:01:48.641Z,4.40
2023-01-31T13:04:32.359Z,4.68
2023-01-31T13:07:05.159Z,4.75
2023-01-31T13:09:35.526Z,4.20
2023-01-31T13:12:08.411Z,4.30
2023-01-31T13:14:42.446Z,4.28
2023-01-31T13:17:14.786Z,4.30
2023-01-31T13:19:49.924Z,5.18
2023-01-31T13:22:24.549Z,4.32
2023-01-31T13:25:00.450Z,4.70
2023-01-31T13:27:32.690Z,4.50
2023-01-31T13:30:05.801Z,3.92
2023-01-31T13:32:39.381Z,4.20
2023-01-31T13:35:17.049Z,4.13
2023-01-31T13:37:47.958Z,4.10
2023-01-31T13:40:20.914Z,4.13
2023-01-31T13:42:50.931Z,4.45
2023-01-31T13:45:25.014Z,4.63
2023-01-31T13:47:55.914Z,5.45
2023-01-31T13:50:34.473Z,4.68
2023-01-31T13:53:04.455Z,4.70
2023-01-31T13:55:37.897Z,5.82
2023-01-31T13:58:08.832Z,4.40
2023-01-31T14:00:41.714Z,5.60
2023-01-31T14:03:13.232Z,5.63
2023-01-31T14:05:54.562Z,7.72
2023-01-31T14:08:50.020Z,7.00
2023-01-31T14:11:37.193Z,5.70
2023-01-31T14:14:20.619Z,5.45
2023-01-31T14:16:53.052Z,5.30
2023-01-31T14:19:36.111Z,5.45
2023-01-31T14:22:16.426Z,6.40
2023-01-31T14:27:46.556Z,6.57
2023-01-31T14:30:29.034Z,6.05
2023-01-31T14:33:27.056Z,6.30
2023-01-31T14:36:09.630Z,6.60
2023-01-31T14:38:52.831Z,6.07
2023-01-31T14:41:30.069Z,7.10
2023-01-31T14:44:09.012Z,7.38
2023-01-31T14:47:05.052Z,7.20
2023-01-31T14:49:58.987Z,6.28
2023-01-31T14:52:42.686Z,6.25
2023-01-31T14:55:33.144Z,6.18
2023-01-31T14:58:03.627Z,6.57
2023-01-31T15:00:34.259Z,7.00
2023-01-31T15:03:06.277Z,8.05
2023-01-31T15:05:46.056Z,7.68
2023-01-31T15:08:37.028Z,5.35
2023-01-31T15:11:07.141Z,7.70
2023-01-31T15:13:47.421Z,7.95
2023-01-31T15:16:25.415Z,8.93
2023-01-31T15:19:00.327Z,8.35
2023-01-31T15:21:32.537Z,8.70
2023-01-31T15:24:02.567Z,9.30
2023-01-31T15:26:34.301Z,9.10
2023-01-31T15:29:04.438Z,9.45
2023-01-31T15:31:36.985Z,8.05
2023-01-31T15:34:13.959Z,10.45
2023-01-31T15:36:49.799Z,8.95
2023-01-31T15:39:23.145Z,9.02
2023-01-31T15:41:52.204Z,9.48
2023-01-31T15:44:23.381Z,9.27
2023-01-31T15:46:53.310Z,9.48
2023-01-31T15:52:13.751Z,9.35
2023-01-31T15:54:56.179Z,8.95
2023-01-31T15:57:28.007Z,10.27
2023-01-31T15:59:58.621Z,9.98
2023-01-31T16:02:29.785Z,10.73
2023-01-31T16:04:59.066Z,9.93
2023-01-31T16:07:31.806Z,10.75
2023-01-31T16:10:03.026Z,10.93
2023-01-31T16:12:33.471Z,11.52
2023-01-31T16:15:06.828Z,11.15
2023-01-31T16:17:36.250Z,11.23
2023-01-31T16:20:05.872Z,11.27
2023-01-31T16:22:36.204Z,11.95
2023-01-31T16:25:06.515Z,11.50
2023-01-31T16:30:07.111Z,12.15
2023-01-31T16:32:41.261Z,11.30
2023-01-31T16:35:22.386Z,13.80
2023-01-31T16:38:02.758Z,12.02
2023-01-31T16:40:33.361Z,12.38
2023-01-31T16:43:11.999Z,10.55
2023-01-31T16:45:52.396Z,10.77
2023-01-31T16:48:24.941Z,11.02
2023-01-31T16:50:55.165Z,9.55
2023-01-31T16:53:33.753Z,10.13
2023-01-31T16:56:19.840Z,10.07
2023-01-31T16:58:51.791Z,9.45
2023-01-31T17:01:23.936Z,9.48
2023-01-31T17:04:08.223Z,9.07
2023-01-31T17:06:37.749Z,10.73
2023-01-31T17:09:10.115Z,11.43
2023-01-31T17:11:43.069Z,11.15
2023-01-31T17:14:12.650Z,10.45
2023-01-31T17:16:41.432Z,12.05
2023-01-31T17:19:11.591Z,11.10
2023-01-31T17:24:14.920Z,11.57
2023-01-31T17:26:44.097Z,11.18
2023-01-31T17:29:13.486Z,11.48
2023-01-31T17:31:42.590Z,11.35
2023-01-31T17:34:14.725Z,12.65
2023-01-31T17:36:44.519Z,11.68
2023-01-31T17:39:16.551Z,15.30
2023-01-31T17:41:47.064Z,11.63
2023-01-31T17:44:16.647Z,11.02
2023-01-31T17:46:45.598Z,10.52
2023-01-31T17:49:15.470Z,11.38
2023-01-31T17:51:45.571Z,11.85
2023-01-31T17:54:16.172Z,11.70
2023-01-31T17:56:45.566Z,13.10
2023-01-31T17:59:25.290Z,13.50
2023-01-31T18:01:55.266Z,13.15
2023-01-31T18:04:24.496Z,12.80
2023-01-31T18:06:53.760Z,12.35
2023-01-31T18:09:25.851Z,12.52
2023-01-31T18:11:54.983Z,12.45
2023-01-31T18:14:24.130Z,10.98
2023-01-31T18:16:54.351Z,12.45
2023-01-31T18:19:23.883Z,14.05
2023-01-31T18:21:55.315Z,11.40
2023-01-31T18:24:26.297Z,14.32
2023-01-31T18:26:57.032Z,13.02
2023-01-31T18:29:26.539Z,12.05
2023-01-31T18:31:57.989Z,15.20
2023-01-31T18:34:27.247Z,12.95
2023-01-31T18:36:56.605Z,13.15
2023-01-31T18:39:27.140Z,12.15
2023-01-31T18:41:56.293Z,14.32
2023-01-31T18:44:25.545Z,13.80
2023-01-31T18:46:54.345Z,13.80
2023-01-31T18:49:23.454Z,12.25
2023-01-31T18:51:52.450Z,13.95
2023-01-31T18:54:21.650Z,12.50
2023-01-31T18:56:53.636Z,14.15
2023-01-31T18:59:22.861Z,14.07
2023-01-31T19:01:53.023Z,12.88
2023-01-31T19:04:22.651Z,12.90
2023-01-31T19:06:51.854Z,13.25
2023-01-31T19:09:21.304Z,11.52
2023-01-31T19:11:50.825Z,11.80
2023-01-31T19:14:21.758Z,10.80
2023-01-31T19:16:50.527Z,13.57
2023-01-31T19:19:20.557Z,15.27
2023-01-31T19:21:49.644Z,16.08
2023-01-31T19:24:18.813Z,15.57
2023-01-31T19:26:47.973Z,16.88
2023-01-31T19:29:17.683Z,16.48
2023-01-31T19:31:47.890Z,13.10
2023-01-31T19:34:16.956Z,13.10
2023-01-31T19:36:46.789Z,15.07
2023-01-31T19:39:15.867Z,14.20
2023-01-31T19:41:44.823Z,13.00
2023-01-31T19:44:13.846Z,14.00
2023-01-31T19:46:43.761Z,14.00
2023-01-31T19:49:14.469Z,14.18
2023-01-31T19:51:43.491Z,13.48
2023-01-31T19:54:15.776Z,13.27
2023-01-31T19:56:45.254Z,13.48
2023-01-31T19:59:14.400Z,10.77
2023-01-31T20:01:43.168Z,11.70
2023-01-31T20:04:14.140Z,13.80
2023-01-31T20:06:43.223Z,12.35
2023-01-31T20:09:20.182Z,11.80
2023-01-31T20:11:51.297Z,8.23
2023-01-31T20:14:20.596Z,7.65
2023-01-31T20:16:49.643Z,8.50
2023-01-31T20:19:22.566Z,12.18
2023-01-31T20:21:51.795Z,12.10
2023-01-31T20:24:20.976Z,9.75
2023-01-31T20:26:50.062Z,10.20
2023-01-31T20:29:19.146Z,12.70
2023-01-31T20:31:48.848Z,9.98
2023-01-31T20:34:19.523Z,11.18
2023-01-31T20:36:48.607Z,10.65
2023-01-31T20:39:19.822Z,11.02
2023-01-31T20:41:48.908Z,10.52
2023-01-31T20:44:18.095Z,11.00
2023-01-31T20:46:47.565Z,9.48
2023-01-31T20:49:16.607Z,10.43
2023-01-31T20:51:47.125Z,9.65
2023-01-31T20:54:16.188Z,9.90
2023-01-31T20:56:45.236Z,10.05
2023-01-31T20:59:14.184Z,10.55
2023-01-31T21:01:43.442Z,9.20
2023-01-31T21:04:12.504Z,12.80
2023-01-31T21:06:41.804Z,8.77
2023-01-31T21:09:12.560Z,12.05
2023-01-31T21:11:41.609Z,12.30
2023-01-31T21:14:10.682Z,10.95
2023-01-31T21:16:39.480Z,12.30
2023-01-31T21:19:08.436Z,11.63
2023-01-31T21:21:37.583Z,12.35
2023-01-31T21:24:08.441Z,12.88
2023-01-31T21:26:38.887Z,11.50
2023-01-31T21:29:07.976Z,10.25
2023-01-31T21:31:36.850Z,11.95
2023-01-31T21:34:06.809Z,13.07
2023-01-31T21:36:36.454Z,12.90
2023-01-31T21:39:05.689Z,11.82
2023-01-31T21:41:52.035Z,11.45
2023-01-31T21:44:22.540Z,12.25
2023-01-31T21:46:51.414Z,13.52
2023-01-31T21:49:20.346Z,10.77
2023-01-31T21:51:49.472Z,11.48
2023-01-31T21:54:18.433Z,10.70
2023-01-31T21:56:47.639Z,10.63
2023-01-31T21:59:16.629Z,10.80
2023-01-31T22:01:46.716Z,12.57
2023-01-31T22:04:20.584Z,13.15
2023-01-31T22:06:49.722Z,10.13
2023-01-31T22:09:18.890Z,10.93
2023-01-31T22:11:48.119Z,10.98
2023-01-31T22:14:18.295Z,11.15
2023-01-31T22:16:50.144Z,11.32
2023-01-31T22:19:19.181Z,10.93
2023-01-31T22:21:48.107Z,10.35
2023-01-31T22:24:17.134Z,10.95
2023-01-31T22:26:46.402Z,7.22
2023-01-31T22:29:16.759Z,11.97
2023-01-31T22:31:47.384Z,10.95
2023-01-31T22:34:17.566Z,13.88
2023-01-31T22:36:46.539Z,13.13
2023-01-31T22:39:16.272Z,12.73
2023-01-31T22:41:45.828Z,8.68
2023-01-31T22:44:14.856Z,12.60
2023-01-31T22:46:44.292Z,14.48
2023-01-31T22:49:14.827Z,12.82
2023-01-31T22:51:43.897Z,11.38
2023-01-31T22:54:14.766Z,13.27
2023-01-31T22:56:43.814Z,13.20
2023-01-31T22:59:12.827Z,14.60
2023-01-31T23:01:41.694Z,14.20
2023-01-31T23:04:12.235Z,14.45
2023-01-31T23:06:42.773Z,14.40
2023-01-31T23:09:11.874Z,16.58
2023-01-31T23:11:41.432Z,16.42
2023-01-31T23:14:10.466Z,14.30
2023-01-31T23:16:56.674Z,14.77
2023-01-31T23:19:27.154Z,18.10
2023-01-31T23:21:57.660Z,14.10
2023-01-31T23:24:26.746Z,16.17
2023-01-31T23:26:56.493Z,15.52
2023-01-31T23:29:25.509Z,18.85
2023-01-31T23:31:54.185Z,16.55
2023-01-31T23:34:23.364Z,15.18
2023-01-31T23:36:52.415Z,17.25
2023-01-31T23:39:22.895Z,17.70
2023-01-31T23:41:51.890Z,18.15
2023-01-31T23:44:20.922Z,14.10
2023-01-31T23:46:49.836Z,13.45
2023-01-31T23:49:18.803Z,11.77
2023-01-31T23:51:47.791Z,12.80
2023-01-31T23:54:16.972Z,12.30
2023-01-31T23:56:47.490Z,13.52
2023-01-31T23:59:16.713Z,15.40
